createdAt,value
2023-02-22T00:00:40.686Z,6.50
2023-02-22T00:03:08.177Z,6.50
2023-02-22T00:05:35.136Z,6.50
2023-02-22T00:08:02.019Z,6.50
2023-02-22T00:10:29.127Z,6.50
2023-02-22T00:12:56.159Z,6.50
2023-02-22T00:15:27.352Z,6.50
2023-02-22T00:17:54.927Z,6.60
2023-02-22T00:20:23.456Z,6.60
2023-02-22T00:22:51.853Z,6.70
2023-02-22T00:25:19.875Z,6.70
2023-02-22T00:27:51.592Z,6.70
2023-02-22T00:30:23.869Z,6.60
2023-02-22T00:32:50.928Z,6.60
2023-02-22T00:35:18.620Z,6.60
2023-02-22T00:37:48.493Z,6.70
2023-02-22T00:40:17.576Z,6.70
2023-02-22T00:42:44.576Z,6.70
2023-02-22T00:45:14.261Z,6.80
2023-02-22T00:47:41.149Z,6.90
2023-02-22T00:50:08.429Z,6.90
2023-02-22T00:52:36.240Z,6.90
2023-02-22T00:55:06.081Z,6.90
2023-02-22T00:57:35.245Z,6.90
2023-02-22T01:00:12.069Z,6.90
2023-02-22T01:02:42.995Z,7.00
2023-02-22T01:05:14.748Z,7.00
2023-02-22T01:07:41.639Z,7.00
2023-02-22T01:10:11.633Z,7.10
2023-02-22T01:12:38.584Z,7.00
2023-02-22T01:15:06.313Z,7.00
2023-02-22T01:17:33.412Z,7.00
2023-02-22T01:20:00.321Z,6.90
2023-02-22T01:22:28.209Z,6.90
2023-02-22T01:24:55.595Z,6.90
2023-02-22T01:27:22.474Z,6.90
2023-02-22T01:29:50.249Z,6.90
2023-02-22T01:32:17.193Z,6.80
2023-02-22T01:34:44.053Z,6.80
2023-02-22T01:37:11.052Z,6.80
2023-02-22T01:39:37.957Z,6.90
2023-02-22T01:42:04.841Z,6.90
2023-02-22T01:44:35.272Z,7.00
2023-02-22T01:47:03.891Z,7.00
2023-02-22T01:49:49.498Z,7.00
2023-02-22T01:52:18.428Z,7.00
2023-02-22T01:54:57.926Z,7.00
2023-02-22T01:57:35.650Z,7.00
2023-02-22T02:00:10.689Z,7.10
2023-02-22T02:02:46.006Z,7.10
2023-02-22T02:05:13.232Z,7.20
2023-02-22T02:07:40.533Z,7.20
2023-02-22T02:10:14.447Z,7.20
2023-02-22T02:12:46.481Z,7.30
2023-02-22T02:15:29.623Z,7.30
2023-02-22T02:18:00.851Z,7.30
2023-02-22T02:20:28.608Z,7.30
2023-02-22T02:23:26.486Z,7.30
2023-02-22T02:26:14.618Z,7.30
2023-02-22T02:28:58.325Z,7.30
2023-02-22T02:31:46.924Z,7.20
2023-02-22T02:34:29.249Z,7.20
2023-02-22T02:36:58.854Z,7.20
2023-02-22T02:39:41.779Z,7.20
2023-02-22T02:42:10.420Z,7.20
2023-02-22T02:44:58.503Z,7.20
2023-02-22T02:47:28.977Z,7.20
2023-02-22T02:50:00.380Z,7.20
2023-02-22T02:52:27.315Z,7.30
2023-02-22T02:54:54.140Z,7.20
2023-02-22T02:57:21.180Z,7.30
2023-02-22T02:59:48.020Z,7.30
2023-02-22T03:02:44.804Z,7.20
2023-02-22T03:05:23.813Z,7.20
2023-02-22T03:08:07.788Z,7.20
2023-02-22T03:11:15.257Z,7.20
2023-02-22T03:14:17.910Z,7.20
2023-02-22T03:16:46.717Z,7.30
2023-02-22T03:19:41.123Z,7.30
2023-02-22T03:22:16.648Z,7.30
2023-02-22T03:25:08.991Z,7.30
2023-02-22T03:27:43.845Z,7.30
2023-02-22T03:30:24.182Z,7.30
2023-02-22T03:32:57.387Z,7.30
2023-02-22T03:35:30.672Z,7.30
2023-02-22T03:37:58.554Z,7.30
2023-02-22T03:40:30.312Z,7.40
2023-02-22T03:43:03.777Z,7.30
2023-02-22T03:45:32.766Z,7.30
2023-02-22T03:48:23.808Z,7.40
2023-02-22T03:50:51.206Z,7.40
2023-02-22T03:53:19.222Z,7.40
2023-02-22T03:55:51.657Z,7.40
2023-02-22T03:58:21.837Z,7.40
2023-02-22T04:00:53.428Z,7.40
2023-02-22T04:03:21.354Z,7.40
2023-02-22T04:05:48.485Z,7.40
2023-02-22T04:08:15.427Z,7.40
2023-02-22T04:10:42.360Z,7.40
2023-02-22T04:13:10.767Z,7.40
2023-02-22T04:15:41.158Z,7.40
2023-02-22T04:18:11.567Z,7.40
2023-02-22T04:20:38.490Z,7.40
2023-02-22T04:23:11.393Z,7.40
2023-02-22T04:25:40.458Z,7.40
2023-02-22T04:28:16.037Z,7.40
2023-02-22T04:30:49.271Z,7.40
2023-02-22T04:33:18.283Z,7.40
2023-02-22T04:35:46.030Z,7.30
2023-02-22T04:38:13.476Z,7.40
2023-02-22T04:40:41.097Z,7.40
2023-02-22T04:43:08.726Z,7.40
2023-02-22T04:45:36.088Z,7.40
2023-02-22T04:48:04.441Z,7.40
2023-02-22T04:50:31.407Z,7.30
2023-02-22T04:52:58.294Z,7.30
2023-02-22T04:55:25.172Z,7.30
2023-02-22T04:57:52.099Z,7.30
2023-02-22T05:00:21.830Z,7.30
2023-02-22T05:02:49.467Z,7.30
2023-02-22T05:05:21.410Z,7.30
2023-02-22T05:07:49.350Z,7.30
2023-02-22T05:10:16.309Z,7.30
2023-02-22T05:12:43.238Z,7.30
2023-02-22T05:15:10.455Z,7.30
2023-02-22T05:17:37.354Z,7.20
2023-02-22T05:20:04.734Z,7.30
2023-02-22T05:22:31.566Z,7.30
2023-02-22T05:24:58.611Z,7.30
2023-02-22T05:27:25.485Z,7.30
2023-02-22T05:29:52.353Z,7.40
2023-02-22T05:32:19.277Z,7.30
2023-02-22T05:34:46.159Z,7.30
2023-02-22T05:37:12.985Z,7.40
2023-02-22T05:39:39.951Z,7.40
2023-02-22T05:42:06.779Z,7.30
2023-02-22T05:44:33.784Z,7.30
2023-02-22T05:47:00.635Z,7.30
2023-02-22T05:49:27.501Z,7.30
2023-02-22T05:51:59.284Z,7.30
2023-02-22T05:54:26.409Z,7.30
2023-02-22T05:56:53.313Z,7.40
2023-02-22T05:59:20.896Z,7.40
2023-02-22T06:01:47.890Z,7.40
2023-02-22T06:04:14.766Z,7.30
2023-02-22T06:06:41.798Z,7.30
2023-02-22T06:09:08.632Z,7.30
2023-02-22T06:11:35.564Z,7.30
2023-02-22T06:14:02.425Z,7.30
2023-02-22T06:16:29.359Z,7.30
2023-02-22T06:18:56.453Z,7.40
2023-02-22T06:21:23.410Z,7.30
2023-02-22T06:23:50.264Z,7.30
2023-02-22T06:26:17.840Z,7.30
2023-02-22T06:28:45.948Z,7.30
2023-02-22T06:31:12.845Z,7.30
2023-02-22T06:33:39.718Z,7.30
2023-02-22T06:36:07.177Z,7.30
2023-02-22T06:38:33.988Z,7.20
2023-02-22T06:41:00.932Z,7.30
2023-02-22T06:43:27.758Z,7.30
2023-02-22T06:45:54.745Z,7.30
2023-02-22T06:48:21.640Z,7.30
2023-02-22T06:50:48.560Z,7.40
2023-02-22T06:53:15.452Z,7.30
2023-02-22T06:55:42.366Z,7.30
2023-02-22T06:58:09.186Z,7.30
2023-02-22T07:00:36.253Z,7.40
2023-02-22T07:03:03.866Z,7.40
2023-02-22T07:05:30.985Z,7.40
2023-02-22T07:08:03.602Z,7.50
2023-02-22T07:10:31.742Z,7.40
2023-02-22T07:12:58.611Z,7.50
2023-02-22T07:15:26.542Z,7.50
2023-02-22T07:17:53.402Z,7.50
2023-02-22T07:20:20.992Z,7.50
2023-02-22T07:22:48.508Z,7.50
2023-02-22T07:25:15.502Z,7.50
2023-02-22T07:27:42.693Z,7.50
2023-02-22T07:30:16.191Z,7.50
2023-02-22T07:32:44.181Z,7.50
2023-02-22T07:35:24.524Z,7.50
2023-02-22T07:37:52.866Z,7.50
2023-02-22T07:40:21.480Z,7.60
2023-02-22T07:42:52.286Z,7.60
2023-02-22T07:45:19.509Z,7.70
2023-02-22T07:47:47.436Z,7.70
2023-02-22T07:50:15.683Z,7.70
2023-02-22T07:52:48.839Z,7.70
2023-02-22T07:55:16.976Z,7.70
2023-02-22T07:57:47.467Z,7.70
2023-02-22T08:00:15.435Z,7.70
2023-02-22T08:02:43.025Z,7.70
2023-02-22T08:05:10.855Z,7.70
2023-02-22T08:07:38.091Z,7.80
2023-02-22T08:10:07.611Z,7.80
2023-02-22T08:12:35.145Z,7.80
2023-02-22T08:15:02.466Z,7.80
2023-02-22T08:17:29.861Z,7.80
2023-02-22T08:19:56.777Z,7.90
2023-02-22T08:22:24.194Z,7.90
2023-02-22T08:24:54.319Z,7.90
2023-02-22T08:27:27.842Z,7.90
2023-02-22T08:29:54.859Z,8.00
2023-02-22T08:32:21.920Z,8.00
2023-02-22T08:34:49.015Z,8.10
2023-02-22T08:37:16.388Z,8.10
2023-02-22T08:39:43.291Z,8.10
2023-02-22T08:42:10.412Z,8.10
2023-02-22T08:44:38.010Z,8.10
2023-02-22T08:47:05.083Z,8.20
2023-02-22T08:49:32.044Z,8.20
2023-02-22T08:51:58.915Z,8.30
2023-02-22T08:54:25.824Z,8.20
2023-02-22T08:56:52.674Z,8.30
2023-02-22T08:59:19.547Z,8.30
2023-02-22T09:01:46.451Z,8.30
2023-02-22T09:04:13.424Z,8.40
2023-02-22T09:06:41.923Z,8.40
2023-02-22T09:09:09.425Z,8.50
2023-02-22T09:11:36.293Z,8.50
2023-02-22T09:14:03.328Z,8.50
2023-02-22T09:16:30.812Z,8.50
2023-02-22T09:18:57.826Z,8.50
2023-02-22T09:21:24.701Z,8.60
2023-02-22T09:23:54.755Z,8.60
2023-02-22T09:26:23.719Z,8.60
2023-02-22T09:28:51.018Z,8.50
2023-02-22T09:31:18.374Z,8.50
2023-02-22T09:33:47.349Z,8.50
2023-02-22T09:36:14.628Z,8.50
2023-02-22T09:38:41.773Z,8.60
2023-02-22T09:41:17.240Z,8.60
2023-02-22T09:44:13.759Z,8.60
2023-02-22T09:46:45.865Z,8.60
2023-02-22T09:49:15.801Z,8.60
2023-02-22T09:51:53.113Z,8.70
2023-02-22T09:54:22.361Z,8.70
2023-02-22T09:56:50.069Z,8.80
2023-02-22T09:59:21.821Z,8.90
2023-02-22T10:01:49.959Z,9.00
2023-02-22T10:04:36.809Z,9.00
2023-02-22T10:07:15.663Z,9.00
2023-02-22T10:09:42.915Z,9.10
2023-02-22T10:12:30.186Z,9.00
2023-02-22T10:15:29.331Z,9.00
2023-02-22T10:18:20.971Z,9.00
2023-02-22T10:20:57.981Z,9.00
2023-02-22T10:23:28.650Z,9.20
2023-02-22T10:25:59.156Z,9.20
2023-02-22T10:28:34.751Z,9.20
2023-02-22T10:31:04.618Z,9.20
2023-02-22T10:33:43.182Z,9.20
2023-02-22T10:36:17.087Z,9.30
2023-02-22T10:38:48.965Z,9.40
2023-02-22T10:41:33.160Z,9.50
2023-02-22T10:44:01.796Z,9.50
2023-02-22T10:46:29.109Z,9.50
2023-02-22T10:49:00.318Z,9.50
2023-02-22T10:51:27.177Z,9.50
2023-02-22T10:54:06.590Z,9.50
2023-02-22T10:56:34.042Z,9.50
2023-02-22T10:59:05.940Z,9.50
2023-02-22T11:01:32.862Z,9.50
2023-02-22T11:04:11.680Z,9.50
2023-02-22T11:06:39.748Z,9.60
2023-02-22T11:09:10.772Z,9.70
2023-02-22T11:11:38.463Z,9.70
2023-02-22T11:14:06.826Z,9.70
2023-02-22T11:16:39.453Z,9.80
2023-02-22T11:19:24.570Z,9.90
2023-02-22T11:21:56.666Z,9.90
2023-02-22T11:24:24.375Z,10.00
2023-02-22T11:26:56.351Z,10.10
2023-02-22T11:29:32.090Z,10.20
2023-02-22T11:32:01.206Z,10.20
2023-02-22T11:34:32.339Z,10.30
2023-02-22T11:37:18.265Z,10.20
2023-02-22T11:39:45.405Z,10.20
2023-02-22T11:42:27.752Z,10.20
2023-02-22T11:45:20.876Z,10.10
2023-02-22T11:47:59.959Z,10.10
2023-02-22T11:50:28.292Z,10.00
2023-02-22T11:53:09.160Z,10.00
2023-02-22T11:56:08.057Z,10.00
2023-02-22T11:59:14.925Z,9.90
2023-02-22T12:02:23.194Z,10.00
2023-02-22T12:05:14.526Z,10.10
2023-02-22T12:08:13.767Z,10.10
2023-02-22T12:11:00.651Z,10.10
2023-02-22T12:13:34.265Z,10.20
2023-02-22T12:16:23.436Z,10.20
2023-02-22T12:19:22.257Z,10.30
2023-02-22T12:21:54.028Z,10.40
2023-02-22T12:24:23.575Z,10.40
2023-02-22T12:27:09.784Z,10.30
2023-02-22T12:29:42.190Z,10.30
2023-02-22T12:32:13.039Z,10.30
2023-02-22T12:34:48.853Z,10.20
2023-02-22T12:37:27.890Z,10.10
2023-02-22T12:40:13.578Z,10.00
2023-02-22T12:42:57.646Z,10.00
2023-02-22T12:45:45.494Z,10.00
2023-02-22T12:48:33.385Z,10.00
2023-02-22T12:51:07.444Z,10.00
2023-02-22T12:53:37.083Z,9.90
2023-02-22T12:56:28.176Z,9.90
2023-02-22T12:59:02.239Z,9.80
2023-02-22T13:01:34.836Z,9.70
2023-02-22T13:04:19.386Z,9.70
2023-02-22T13:07:05.411Z,9.60
2023-02-22T13:09:51.092Z,9.60
2023-02-22T13:12:39.206Z,9.70
2023-02-22T13:15:28.336Z,9.80
2023-02-22T13:18:07.565Z,9.80
2023-02-22T13:20:46.323Z,9.80
2023-02-22T13:23:50.699Z,9.80
2023-02-22T13:26:25.252Z,9.80
2023-02-22T13:29:02.420Z,9.80
2023-02-22T13:31:53.224Z,9.80
2023-02-22T13:34:42.982Z,9.80
2023-02-22T13:37:31.906Z,9.70
2023-02-22T13:40:10.524Z,9.70
2023-02-22T13:43:34.421Z,9.80
2023-02-22T13:46:12.805Z,9.80
2023-02-22T13:48:45.851Z,9.80
2023-02-22T13:51:35.641Z,9.80
2023-02-22T13:54:13.462Z,9.80
2023-02-22T13:56:47.191Z,9.80
2023-02-22T13:59:36.136Z,9.90
2023-02-22T14:02:04.505Z,10.00
2023-02-22T14:04:31.507Z,10.00
2023-02-22T14:07:02.332Z,10.10
2023-02-22T14:09:49.166Z,10.20
2023-02-22T14:12:31.322Z,10.30
2023-02-22T14:15:22.012Z,10.40
2023-02-22T14:18:01.020Z,10.50
2023-02-22T14:20:36.790Z,10.40
2023-02-22T14:23:40.309Z,10.30
2023-02-22T14:26:14.135Z,10.30
2023-02-22T14:28:43.861Z,10.20
2023-02-22T14:31:35.083Z,10.20
2023-02-22T14:34:52.073Z,10.20
2023-02-22T14:37:25.497Z,10.20
2023-02-22T14:39:54.286Z,10.20
2023-02-22T14:42:37.859Z,10.30
2023-02-22T14:45:20.278Z,10.30
2023-02-22T14:48:04.690Z,10.40
2023-02-22T14:50:41.114Z,10.50
2023-02-22T14:53:30.164Z,10.40
2023-02-22T14:56:14.773Z,10.40
2023-02-22T14:58:55.042Z,10.50
2023-02-22T15:01:28.959Z,10.50
2023-02-22T15:04:07.828Z,10.50
2023-02-22T15:06:35.471Z,10.40
2023-02-22T15:09:14.602Z,10.40
2023-02-22T15:11:41.569Z,10.40
2023-02-22T15:14:25.609Z,10.40
2023-02-22T15:16:54.109Z,10.40
2023-02-22T15:19:25.392Z,10.30
2023-02-22T15:21:54.170Z,10.20
2023-02-22T15:24:26.685Z,10.20
2023-02-22T15:27:01.535Z,10.10
2023-02-22T15:29:35.317Z,10.10
2023-02-22T15:32:02.258Z,10.10
2023-02-22T15:34:33.989Z,10.10
2023-02-22T15:37:25.454Z,10.10
2023-02-22T15:39:59.589Z,10.10
2023-02-22T15:42:29.471Z,10.10
2023-02-22T15:44:56.851Z,10.20
2023-02-22T15:47:25.473Z,10.20
2023-02-22T15:50:25.636Z,10.20
2023-02-22T15:53:00.858Z,10.20
2023-02-22T15:55:41.151Z,10.20
2023-02-22T15:58:18.298Z,10.20
2023-02-22T16:00:47.421Z,10.20
2023-02-22T16:03:19.664Z,10.20
2023-02-22T16:05:48.278Z,10.20
2023-02-22T16:08:25.007Z,10.20
2023-02-22T16:11:13.399Z,10.20
2023-02-22T16:13:41.597Z,10.30
2023-02-22T16:16:17.728Z,10.30
2023-02-22T16:18:44.634Z,10.30
2023-02-22T16:21:13.975Z,10.30
2023-02-22T16:23:47.502Z,10.20
2023-02-22T16:26:30.330Z,10.20
2023-02-22T16:29:05.035Z,10.10
2023-02-22T16:31:34.018Z,10.10
2023-02-22T16:34:02.412Z,10.00
2023-02-22T16:36:40.634Z,10.00
2023-02-22T16:39:21.467Z,10.00
2023-02-22T16:41:48.488Z,10.00
2023-02-22T16:44:16.959Z,10.00
2023-02-22T16:46:44.116Z,10.10
2023-02-22T16:49:11.949Z,10.10
2023-02-22T16:51:50.727Z,10.00
2023-02-22T16:54:30.603Z,10.00
2023-02-22T16:57:00.376Z,10.00
2023-02-22T16:59:27.274Z,10.00
2023-02-22T17:01:54.270Z,10.00
2023-02-22T17:04:22.879Z,10.00
2023-02-22T17:06:49.925Z,9.90
2023-02-22T17:09:16.920Z,10.00
2023-02-22T17:11:43.976Z,10.00
2023-02-22T17:14:10.899Z,9.90
2023-02-22T17:16:37.732Z,9.90
2023-02-22T17:19:10.004Z,9.90
2023-02-22T17:21:36.868Z,9.90
2023-02-22T17:24:03.888Z,9.80
2023-02-22T17:26:30.822Z,9.80
2023-02-22T17:28:57.800Z,9.80
2023-02-22T17:31:26.423Z,9.80
2023-02-22T17:33:53.509Z,9.80
2023-02-22T17:36:21.024Z,9.80
2023-02-22T17:38:48.018Z,9.70
2023-02-22T17:41:14.867Z,9.70
2023-02-22T17:43:41.748Z,9.60
2023-02-22T17:46:08.726Z,9.60
2023-02-22T17:48:35.643Z,9.60
2023-02-22T17:51:10.691Z,9.60
2023-02-22T17:53:38.243Z,9.60
2023-02-22T17:56:09.597Z,9.50
2023-02-22T17:58:36.828Z,9.50
2023-02-22T18:01:03.879Z,9.50
2023-02-22T18:03:30.928Z,9.40
2023-02-22T18:05:59.914Z,9.40
2023-02-22T18:08:27.953Z,9.40
2023-02-22T18:10:57.804Z,9.40
2023-02-22T18:13:26.392Z,9.40
2023-02-22T18:15:53.516Z,9.40
2023-02-22T18:18:22.299Z,9.40
2023-02-22T18:20:51.526Z,9.40
2023-02-22T18:23:20.364Z,9.40
2023-02-22T18:26:07.629Z,9.40
2023-02-22T18:28:35.841Z,9.40
2023-02-22T18:31:10.504Z,9.40
2023-02-22T18:33:37.498Z,9.30
2023-02-22T18:36:04.793Z,9.30
2023-02-22T18:38:31.800Z,9.20
2023-02-22T18:40:59.892Z,9.20
2023-02-22T18:43:27.013Z,9.20
2023-02-22T18:45:55.048Z,9.20
2023-02-22T18:48:21.972Z,9.20
2023-02-22T18:50:48.832Z,9.10
2023-02-22T18:53:15.720Z,9.10
2023-02-22T18:55:43.003Z,9.10
2023-02-22T18:58:11.189Z,9.10
2023-02-22T19:00:38.292Z,9.10
2023-02-22T19:03:05.882Z,9.10
2023-02-22T19:05:33.429Z,9.00
2023-02-22T19:08:01.039Z,9.00
2023-02-22T19:10:28.501Z,9.00
2023-02-22T19:12:55.392Z,9.00
2023-02-22T19:15:23.596Z,8.90
2023-02-22T19:17:50.482Z,8.90
2023-02-22T19:20:17.466Z,8.90
2023-02-22T19:22:45.682Z,8.90
2023-02-22T19:25:12.636Z,8.80
2023-02-22T19:27:41.721Z,8.80
2023-02-22T19:30:09.756Z,8.90
2023-02-22T19:32:37.198Z,8.80
2023-02-22T19:35:06.920Z,8.80
2023-02-22T19:37:35.678Z,8.80
2023-02-22T19:40:06.684Z,8.70
2023-02-22T19:42:33.662Z,8.80
2023-02-22T19:45:00.519Z,8.80
2023-02-22T19:47:27.584Z,8.80
2023-02-22T19:49:57.200Z,8.80
2023-02-22T19:52:28.310Z,8.80
2023-02-22T19:54:55.154Z,8.80
2023-02-22T19:57:23.759Z,8.80
2023-02-22T19:59:51.024Z,8.80
2023-02-22T20:02:17.983Z,8.80
2023-02-22T20:04:44.899Z,8.80
2023-02-22T20:07:11.894Z,8.80
2023-02-22T20:09:43.235Z,8.80
2023-02-22T20:12:10.231Z,8.80
2023-02-22T20:14:37.406Z,8.80
2023-02-22T20:17:05.099Z,8.80
2023-02-22T20:19:31.986Z,8.80
2023-02-22T20:22:00.390Z,8.80
2023-02-22T20:24:27.871Z,8.80
2023-02-22T20:26:57.141Z,8.70
2023-02-22T20:29:29.674Z,8.80
2023-02-22T20:31:57.976Z,8.80
2023-02-22T20:34:26.574Z,8.70
2023-02-22T20:36:54.057Z,8.70
2023-02-22T20:39:20.880Z,8.70
2023-02-22T20:41:47.838Z,8.70
2023-02-22T20:44:16.452Z,8.70
2023-02-22T20:46:43.494Z,8.70
2023-02-22T20:49:13.313Z,8.70
2023-02-22T20:51:40.496Z,8.70
2023-02-22T20:54:11.213Z,8.60
2023-02-22T20:56:42.518Z,8.60
2023-02-22T20:59:11.960Z,8.60
2023-02-22T21:01:39.102Z,8.60
2023-02-22T21:04:06.685Z,8.60
2023-02-22T21:06:35.448Z,8.60
2023-02-22T21:09:02.964Z,8.60
2023-02-22T21:11:31.615Z,8.50
2023-02-22T21:13:59.083Z,8.60
2023-02-22T21:16:30.749Z,8.60
2023-02-22T21:18:59.877Z,8.50
2023-02-22T21:21:27.169Z,8.50
2023-02-22T21:23:55.325Z,8.50
2023-02-22T21:26:24.146Z,8.50
2023-02-22T21:28:52.120Z,8.50
2023-02-22T21:31:23.702Z,8.50
2023-02-22T21:33:52.696Z,8.50
2023-02-22T21:36:19.874Z,8.40
2023-02-22T21:38:48.641Z,8.40
2023-02-22T21:41:16.547Z,8.40
2023-02-22T21:43:43.970Z,8.40
2023-02-22T21:46:11.358Z,8.40
2023-02-22T21:48:39.040Z,8.40
2023-02-22T21:51:15.803Z,8.30
2023-02-22T21:53:52.095Z,8.30
2023-02-22T21:56:22.879Z,8.30
2023-02-22T21:58:54.305Z,8.30
2023-02-22T22:01:21.396Z,8.30
2023-02-22T22:03:48.387Z,8.30
2023-02-22T22:06:15.240Z,8.30
2023-02-22T22:08:43.144Z,8.30
2023-02-22T22:11:10.706Z,8.30
2023-02-22T22:13:40.471Z,8.30
2023-02-22T22:16:08.800Z,8.30
2023-02-22T22:18:39.340Z,8.30
2023-02-22T22:21:12.225Z,8.30
2023-02-22T22:23:39.475Z,8.30
2023-02-22T22:26:12.662Z,8.20
2023-02-22T22:28:44.408Z,8.20
2023-02-22T22:31:11.410Z,8.20
2023-02-22T22:33:39.878Z,8.10
2023-02-22T22:36:07.031Z,8.10
2023-02-22T22:38:33.949Z,8.10
2023-02-22T22:41:05.884Z,8.00
2023-02-22T22:43:35.206Z,8.00
2023-02-22T22:46:03.223Z,8.00
2023-02-22T22:48:31.489Z,8.00
2023-02-22T22:51:06.706Z,7.90
2023-02-22T22:53:34.094Z,7.90
2023-02-22T22:56:08.821Z,7.90
2023-02-22T22:58:35.794Z,7.90
2023-02-22T23:01:05.953Z,7.90
2023-02-22T23:03:36.783Z,7.90
2023-02-22T23:06:04.606Z,7.90
2023-02-22T23:08:43.079Z,7.90
2023-02-22T23:11:12.938Z,7.90
2023-02-22T23:13:39.970Z,7.90
2023-02-22T23:16:12.711Z,7.80
2023-02-22T23:18:43.242Z,7.80
2023-02-22T23:21:10.761Z,7.80
2023-02-22T23:23:37.872Z,7.70
2023-02-22T23:26:18.268Z,7.70
2023-02-22T23:28:46.462Z,7.70
2023-02-22T23:31:15.216Z,7.70
2023-02-22T23:33:43.183Z,7.70
2023-02-22T23:36:12.506Z,7.60
2023-02-22T23:38:40.030Z,7.60
2023-02-22T23:41:09.033Z,7.60
2023-02-22T23:43:40.347Z,7.50
2023-02-22T23:46:18.454Z,7.50
2023-02-22T23:48:52.686Z,7.50
2023-02-22T23:51:25.418Z,7.50
2023-02-22T23:53:55.757Z,7.40
2023-02-22T23:56:26.813Z,7.40
2023-02-22T23:58:57.632Z,7.40
